sensor_id;sensor_type;location;lat;lon;timestamp;P1;durP1;ratioP1;P2;durP2;ratioP2
56541;SDS011;42438;53.174;6.730;2022-09-28T00:00:19;5.57;;;3.50;;
56541;SDS011;42438;53.174;6.730;2022-09-28T00:02:50;6.80;;;3.50;;
56541;SDS011;42438;53.174;6.730;2022-09-28T00:05:21;5.78;;;3.30;;
56541;SDS011;42438;53.174;6.730;2022-09-28T00:07:55;6.55;;;3.58;;
56541;SDS011;42438;53.174;6.730;2022-09-28T00:10:26;8.75;;;3.10;;
56541;SDS011;42438;53.174;6.730;2022-09-28T00:12:57;9.18;;;3.17;;
56541;SDS011;42438;53.174;6.730;2022-09-28T00:15:30;5.80;;;3.20;;
56541;SDS011;42438;53.174;6.730;2022-09-28T00:18:00;5.15;;;3.30;;
56541;SDS011;42438;53.174;6.730;2022-09-28T00:20:31;6.10;;;3.78;;
56541;SDS011;42438;53.174;6.730;2022-09-28T00:23:02;8.43;;;3.92;;
56541;SDS011;42438;53.174;6.730;2022-09-28T00:25:32;8.02;;;3.97;;
56541;SDS011;42438;53.174;6.730;2022-09-28T00:28:03;5.68;;;3.42;;
56541;SDS011;42438;53.174;6.730;2022-09-28T00:30:35;7.93;;;3.70;;
56541;SDS011;42438;53.174;6.730;2022-09-28T00:33:06;6.70;;;3.97;;
56541;SDS011;42438;53.174;6.730;2022-09-28T00:35:36;6.72;;;4.13;;
56541;SDS011;42438;53.174;6.730;2022-09-28T00:38:07;8.80;;;4.65;;
56541;SDS011;42438;53.174;6.730;2022-09-28T00:40:38;6.10;;;3.90;;
56541;SDS011;42438;53.174;6.730;2022-09-28T00:43:15;6.57;;;3.92;;
56541;SDS011;42438;53.174;6.730;2022-09-28T00:46:24;5.93;;;4.10;;
56541;SDS011;42438;53.174;6.730;2022-09-28T00:48:59;7.78;;;4.10;;
56541;SDS011;42438;53.174;6.730;2022-09-28T00:51:36;6.15;;;4.00;;
56541;SDS011;42438;53.174;6.730;2022-09-28T00:54:10;8.50;;;4.38;;
56541;SDS011;42438;53.174;6.730;2022-09-28T00:56:44;9.02;;;4.47;;
56541;SDS011;42438;53.174;6.730;2022-09-28T00:59:17;10.13;;;4.63;;
56541;SDS011;42438;53.174;6.730;2022-09-28T01:01:48;7.38;;;4.15;;
56541;SDS011;42438;53.174;6.730;2022-09-28T01:04:20;7.43;;;4.03;;
56541;SDS011;42438;53.174;6.730;2022-09-28T01:06:51;8.70;;;4.53;;
56541;SDS011;42438;53.174;6.730;2022-09-28T01:09:23;9.75;;;4.68;;
56541;SDS011;42438;53.174;6.730;2022-09-28T01:11:55;6.57;;;4.55;;
56541;SDS011;42438;53.174;6.730;2022-09-28T01:14:25;8.43;;;3.90;;
56541;SDS011;42438;53.174;6.730;2022-09-28T01:16:59;6.10;;;3.75;;
56541;SDS011;42438;53.174;6.730;2022-09-28T01:25:15;7.65;;;4.43;;
56541;SDS011;42438;53.174;6.730;2022-09-28T01:27:58;8.45;;;4.28;;
56541;SDS011;42438;53.174;6.730;2022-09-28T01:33:45;7.82;;;3.90;;
56541;SDS011;42438;53.174;6.730;2022-09-28T01:37:05;9.73;;;4.90;;
56541;SDS011;42438;53.174;6.730;2022-09-28T01:39:19;9.32;;;4.90;;
56541;SDS011;42438;53.174;6.730;2022-09-28T01:42:04;8.73;;;4.60;;
56541;SDS011;42438;53.174;6.730;2022-09-28T01:44:41;10.10;;;4.47;;
56541;SDS011;42438;53.174;6.730;2022-09-28T01:47:16;7.25;;;4.32;;
56541;SDS011;42438;53.174;6.730;2022-09-28T01:50:12;7.47;;;4.85;;
56541;SDS011;42438;53.174;6.730;2022-09-28T01:52:44;7.82;;;4.13;;
56541;SDS011;42438;53.174;6.730;2022-09-28T01:55:41;7.45;;;4.82;;
56541;SDS011;42438;53.174;6.730;2022-09-28T01:58:17;7.32;;;4.07;;
56541;SDS011;42438;53.174;6.730;2022-09-28T02:00:52;7.10;;;4.38;;
56541;SDS011;42438;53.174;6.730;2022-09-28T02:03:37;6.40;;;4.57;;
56541;SDS011;42438;53.174;6.730;2022-09-28T02:06:17;8.65;;;5.00;;
56541;SDS011;42438;53.174;6.730;2022-09-28T02:08:55;9.60;;;4.90;;
56541;SDS011;42438;53.174;6.730;2022-09-28T02:11:31;9.13;;;4.82;;
56541;SDS011;42438;53.174;6.730;2022-09-28T02:14:09;8.75;;;4.70;;
56541;SDS011;42438;53.174;6.730;2022-09-28T02:16:44;6.53;;;4.07;;
56541;SDS011;42438;53.174;6.730;2022-09-28T02:19:20;9.48;;;4.65;;
56541;SDS011;42438;53.174;6.730;2022-09-28T02:24:50;54.88;;;6.80;;
56541;SDS011;42438;53.174;6.730;2022-09-28T02:27:30;21.27;;;5.07;;
56541;SDS011;42438;53.174;6.730;2022-09-28T02:30:03;11.38;;;3.65;;
56541;SDS011;42438;53.174;6.730;2022-09-28T02:32:36;16.25;;;4.43;;
56541;SDS011;42438;53.174;6.730;2022-09-28T02:35:10;10.15;;;3.90;;
56541;SDS011;42438;53.174;6.730;2022-09-28T02:37:43;18.38;;;5.03;;
56541;SDS011;42438;53.174;6.730;2022-09-28T02:40:16;14.90;;;4.45;;
56541;SDS011;42438;53.174;6.730;2022-09-28T02:42:51;20.08;;;4.57;;
56541;SDS011;42438;53.174;6.730;2022-09-28T02:51:20;11.65;;;3.75;;
56541;SDS011;42438;53.174;6.730;2022-09-28T03:05:12;23.50;;;5.43;;
56541;SDS011;42438;53.174;6.730;2022-09-28T03:13:07;31.27;;;8.07;;
56541;SDS011;42438;53.174;6.730;2022-09-28T03:15:40;27.52;;;6.35;;
56541;SDS011;42438;53.174;6.730;2022-09-28T03:18:11;21.58;;;6.60;;
56541;SDS011;42438;53.174;6.730;2022-09-28T03:20:42;17.10;;;5.53;;
56541;SDS011;42438;53.174;6.730;2022-09-28T03:23:12;17.90;;;6.85;;
56541;SDS011;42438;53.174;6.730;2022-09-28T03:25:43;14.23;;;5.75;;
56541;SDS011;42438;53.174;6.730;2022-09-28T03:28:13;15.70;;;5.45;;
56541;SDS011;42438;53.174;6.730;2022-09-28T03:30:44;11.95;;;5.68;;
56541;SDS011;42438;53.174;6.730;2022-09-28T03:33:15;9.23;;;5.32;;
56541;SDS011;42438;53.174;6.730;2022-09-28T03:35:46;13.80;;;5.88;;
56541;SDS011;42438;53.174;6.730;2022-09-28T03:38:18;13.02;;;6.80;;
56541;SDS011;42438;53.174;6.730;2022-09-28T03:40:55;15.30;;;5.43;;
56541;SDS011;42438;53.174;6.730;2022-09-28T03:43:28;18.90;;;5.50;;
56541;SDS011;42438;53.174;6.730;2022-09-28T03:45:59;11.80;;;5.00;;
56541;SDS011;42438;53.174;6.730;2022-09-28T03:48:31;23.55;;;6.35;;
56541;SDS011;42438;53.174;6.730;2022-09-28T03:51:04;34.45;;;9.13;;
56541;SDS011;42438;53.174;6.730;2022-09-28T03:53:38;18.45;;;6.15;;
56541;SDS011;42438;53.174;6.730;2022-09-28T03:56:10;13.38;;;6.18;;
56541;SDS011;42438;53.174;6.730;2022-09-28T03:58:42;29.17;;;7.97;;
56541;SDS011;42438;53.174;6.730;2022-09-28T04:01:13;36.70;;;7.82;;
56541;SDS011;42438;53.174;6.730;2022-09-28T04:03:46;18.38;;;6.80;;
56541;SDS011;42438;53.174;6.730;2022-09-28T04:06:24;73.43;;;9.85;;
56541;SDS011;42438;53.174;6.730;2022-09-28T04:08:55;59.22;;;7.78;;
56541;SDS011;42438;53.174;6.730;2022-09-28T04:11:25;39.55;;;8.68;;
56541;SDS011;42438;53.174;6.730;2022-09-28T04:13:56;31.48;;;7.35;;
56541;SDS011;42438;53.174;6.730;2022-09-28T04:16:27;37.67;;;8.38;;
56541;SDS011;42438;53.174;6.730;2022-09-28T04:18:57;25.58;;;6.80;;
56541;SDS011;42438;53.174;6.730;2022-09-28T04:21:28;36.10;;;7.20;;
56541;SDS011;42438;53.174;6.730;2022-09-28T04:23:59;73.72;;;8.60;;
56541;SDS011;42438;53.174;6.730;2022-09-28T04:26:29;48.33;;;9.25;;
56541;SDS011;42438;53.174;6.730;2022-09-28T04:29:00;59.00;;;9.63;;
56541;SDS011;42438;53.174;6.730;2022-09-28T04:34:21;48.33;;;8.65;;
56541;SDS011;42438;53.174;6.730;2022-09-28T04:36:52;62.35;;;7.82;;
56541;SDS011;42438;53.174;6.730;2022-09-28T04:39:23;46.53;;;8.73;;
56541;SDS011;42438;53.174;6.730;2022-09-28T04:41:53;47.20;;;7.65;;
56541;SDS011;42438;53.174;6.730;2022-09-28T04:44:24;81.18;;;8.90;;
56541;SDS011;42438;53.174;6.730;2022-09-28T04:46:55;73.03;;;10.50;;
56541;SDS011;42438;53.174;6.730;2022-09-28T04:49:25;83.93;;;10.90;;
56541;SDS011;42438;53.174;6.730;2022-09-28T04:51:56;61.17;;;9.45;;
56541;SDS011;42438;53.174;6.730;2022-09-28T04:54:26;44.13;;;9.32;;
56541;SDS011;42438;53.174;6.730;2022-09-28T04:56:57;89.38;;;11.82;;
56541;SDS011;42438;53.174;6.730;2022-09-28T04:59:28;58.58;;;9.80;;
56541;SDS011;42438;53.174;6.730;2022-09-28T05:01:58;56.13;;;8.75;;
56541;SDS011;42438;53.174;6.730;2022-09-28T05:04:29;36.65;;;8.38;;
56541;SDS011;42438;53.174;6.730;2022-09-28T05:07:00;76.45;;;10.85;;
56541;SDS011;42438;53.174;6.730;2022-09-28T05:09:30;48.72;;;8.73;;
56541;SDS011;42438;53.174;6.730;2022-09-28T05:12:01;46.83;;;8.30;;
56541;SDS011;42438;53.174;6.730;2022-09-28T05:14:32;43.80;;;7.72;;
56541;SDS011;42438;53.174;6.730;2022-09-28T05:17:02;62.08;;;9.15;;
56541;SDS011;42438;53.174;6.730;2022-09-28T05:19:33;70.05;;;9.57;;
56541;SDS011;42438;53.174;6.730;2022-09-28T05:22:04;77.63;;;11.75;;
56541;SDS011;42438;53.174;6.730;2022-09-28T05:24:40;72.55;;;10.32;;
56541;SDS011;42438;53.174;6.730;2022-09-28T05:27:11;65.95;;;9.95;;
56541;SDS011;42438;53.174;6.730;2022-09-28T05:29:42;89.88;;;10.82;;
56541;SDS011;42438;53.174;6.730;2022-09-28T05:32:13;65.22;;;8.57;;
56541;SDS011;42438;53.174;6.730;2022-09-28T05:34:43;70.25;;;8.05;;
56541;SDS011;42438;53.174;6.730;2022-09-28T05:37:14;68.10;;;9.88;;
56541;SDS011;42438;53.174;6.730;2022-09-28T05:39:45;65.35;;;10.02;;
56541;SDS011;42438;53.174;6.730;2022-09-28T05:42:15;56.35;;;9.45;;
56541;SDS011;42438;53.174;6.730;2022-09-28T05:44:46;42.25;;;8.40;;
56541;SDS011;42438;53.174;6.730;2022-09-28T05:47:16;53.25;;;9.88;;
56541;SDS011;42438;53.174;6.730;2022-09-28T05:49:47;48.58;;;9.13;;
56541;SDS011;42438;53.174;6.730;2022-09-28T05:52:18;52.60;;;7.57;;
56541;SDS011;42438;53.174;6.730;2022-09-28T05:54:49;58.60;;;8.50;;
56541;SDS011;42438;53.174;6.730;2022-09-28T05:57:20;48.85;;;8.27;;
56541;SDS011;42438;53.174;6.730;2022-09-28T05:59:50;50.90;;;8.73;;
56541;SDS011;42438;53.174;6.730;2022-09-28T06:02:21;24.70;;;8.02;;
56541;SDS011;42438;53.174;6.730;2022-09-28T06:04:52;28.30;;;6.78;;
56541;SDS011;42438;53.174;6.730;2022-09-28T06:07:23;22.25;;;6.85;;
56541;SDS011;42438;53.174;6.730;2022-09-28T06:09:53;42.80;;;9.23;;
56541;SDS011;42438;53.174;6.730;2022-09-28T06:12:24;30.50;;;7.60;;
56541;SDS011;42438;53.174;6.730;2022-09-28T06:14:55;42.70;;;8.43;;
56541;SDS011;42438;53.174;6.730;2022-09-28T06:17:26;38.28;;;8.15;;
56541;SDS011;42438;53.174;6.730;2022-09-28T06:19:57;51.30;;;9.38;;
56541;SDS011;42438;53.174;6.730;2022-09-28T06:22:28;41.47;;;8.73;;
56541;SDS011;42438;53.174;6.730;2022-09-28T06:24:58;46.35;;;8.70;;
56541;SDS011;42438;53.174;6.730;2022-09-28T06:27:30;32.08;;;9.00;;
56541;SDS011;42438;53.174;6.730;2022-09-28T06:30:00;73.70;;;11.05;;
56541;SDS011;42438;53.174;6.730;2022-09-28T06:32:31;56.95;;;10.40;;
56541;SDS011;42438;53.174;6.730;2022-09-28T06:35:02;62.20;;;9.82;;
56541;SDS011;42438;53.174;6.730;2022-09-28T06:37:33;86.65;;;11.90;;
56541;SDS011;42438;53.174;6.730;2022-09-28T06:40:04;80.30;;;10.80;;
56541;SDS011;42438;53.174;6.730;2022-09-28T06:42:35;51.15;;;8.23;;
56541;SDS011;42438;53.174;6.730;2022-09-28T06:45:06;51.90;;;10.63;;
56541;SDS011;42438;53.174;6.730;2022-09-28T06:47:37;34.78;;;9.32;;
56541;SDS011;42438;53.174;6.730;2022-09-28T06:50:08;39.58;;;8.48;;
56541;SDS011;42438;53.174;6.730;2022-09-28T06:52:44;39.00;;;8.93;;
56541;SDS011;42438;53.174;6.730;2022-09-28T06:55:14;51.03;;;10.10;;
56541;SDS011;42438;53.174;6.730;2022-09-28T06:57:45;38.47;;;8.85;;
56541;SDS011;42438;53.174;6.730;2022-09-28T07:00:16;23.70;;;7.65;;
56541;SDS011;42438;53.174;6.730;2022-09-28T07:02:47;32.08;;;10.27;;
56541;SDS011;42438;53.174;6.730;2022-09-28T07:05:18;34.65;;;10.15;;
56541;SDS011;42438;53.174;6.730;2022-09-28T07:08:08;29.92;;;9.30;;
56541;SDS011;42438;53.174;6.730;2022-09-28T07:10:40;23.63;;;9.45;;
56541;SDS011;42438;53.174;6.730;2022-09-28T07:13:12;24.95;;;8.77;;
56541;SDS011;42438;53.174;6.730;2022-09-28T07:15:44;42.85;;;9.55;;
56541;SDS011;42438;53.174;6.730;2022-09-28T07:18:15;42.55;;;8.70;;
56541;SDS011;42438;53.174;6.730;2022-09-28T07:20:46;43.97;;;9.20;;
56541;SDS011;42438;53.174;6.730;2022-09-28T07:23:17;27.05;;;9.63;;
56541;SDS011;42438;53.174;6.730;2022-09-28T07:25:48;23.90;;;8.63;;
56541;SDS011;42438;53.174;6.730;2022-09-28T07:28:19;27.58;;;9.02;;
56541;SDS011;42438;53.174;6.730;2022-09-28T07:30:50;25.05;;;8.27;;
56541;SDS011;42438;53.174;6.730;2022-09-28T07:33:21;44.88;;;9.10;;
56541;SDS011;42438;53.174;6.730;2022-09-28T07:35:54;24.08;;;8.52;;
56541;SDS011;42438;53.174;6.730;2022-09-28T07:38:24;41.22;;;8.35;;
56541;SDS011;42438;53.174;6.730;2022-09-28T07:40:55;25.38;;;8.65;;
56541;SDS011;42438;53.174;6.730;2022-09-28T07:43:41;24.70;;;8.48;;
56541;SDS011;42438;53.174;6.730;2022-09-28T07:46:12;39.85;;;9.02;;
56541;SDS011;42438;53.174;6.730;2022-09-28T07:48:43;28.02;;;9.45;;
56541;SDS011;42438;53.174;6.730;2022-09-28T07:51:14;21.10;;;7.95;;
56541;SDS011;42438;53.174;6.730;2022-09-28T07:53:46;28.33;;;8.23;;
56541;SDS011;42438;53.174;6.730;2022-09-28T07:56:17;31.70;;;7.28;;
56541;SDS011;42438;53.174;6.730;2022-09-28T07:58:49;30.25;;;7.55;;
56541;SDS011;42438;53.174;6.730;2022-09-28T08:01:19;32.55;;;8.60;;
56541;SDS011;42438;53.174;6.730;2022-09-28T08:03:50;20.90;;;7.65;;
56541;SDS011;42438;53.174;6.730;2022-09-28T08:06:25;20.90;;;6.78;;
56541;SDS011;42438;53.174;6.730;2022-09-28T08:08:56;13.75;;;6.88;;
56541;SDS011;42438;53.174;6.730;2022-09-28T08:13:59;20.58;;;7.40;;
56541;SDS011;42438;53.174;6.730;2022-09-28T08:16:31;24.17;;;7.65;;
56541;SDS011;42438;53.174;6.730;2022-09-28T08:19:01;16.60;;;6.75;;
56541;SDS011;42438;53.174;6.730;2022-09-28T08:21:32;24.90;;;7.63;;
56541;SDS011;42438;53.174;6.730;2022-09-28T08:24:15;16.60;;;6.40;;
56541;SDS011;42438;53.174;6.730;2022-09-28T08:26:46;23.52;;;7.90;;
56541;SDS011;42438;53.174;6.730;2022-09-28T08:29:18;15.18;;;6.15;;
56541;SDS011;42438;53.174;6.730;2022-09-28T08:31:49;15.02;;;6.70;;
56541;SDS011;42438;53.174;6.730;2022-09-28T08:34:19;12.65;;;6.45;;
56541;SDS011;42438;53.174;6.730;2022-09-28T08:36:50;15.55;;;6.63;;
56541;SDS011;42438;53.174;6.730;2022-09-28T08:39:20;14.85;;;6.63;;
56541;SDS011;42438;53.174;6.730;2022-09-28T08:44:50;22.08;;;7.50;;
56541;SDS011;42438;53.174;6.730;2022-09-28T08:47:28;14.40;;;7.18;;
56541;SDS011;42438;53.174;6.730;2022-09-28T08:50:33;11.73;;;6.43;;
56541;SDS011;42438;53.174;6.730;2022-09-28T08:56:14;12.40;;;5.72;;
56541;SDS011;42438;53.174;6.730;2022-09-28T08:58:55;12.75;;;6.43;;
56541;SDS011;42438;53.174;6.730;2022-09-28T09:01:31;12.45;;;6.47;;
56541;SDS011;42438;53.174;6.730;2022-09-28T09:04:07;13.50;;;7.00;;
56541;SDS011;42438;53.174;6.730;2022-09-28T09:06:43;11.93;;;6.25;;
56541;SDS011;42438;53.174;6.730;2022-09-28T09:12:47;12.65;;;6.47;;
56541;SDS011;42438;53.174;6.730;2022-09-28T09:15:49;12.10;;;6.38;;
56541;SDS011;42438;53.174;6.730;2022-09-28T09:24:22;11.38;;;5.85;;
56541;SDS011;42438;53.174;6.730;2022-09-28T09:27:10;11.50;;;6.27;;
56541;SDS011;42438;53.174;6.730;2022-09-28T09:30:05;10.88;;;6.35;;
56541;SDS011;42438;53.174;6.730;2022-09-28T09:38:14;11.25;;;6.53;;
56541;SDS011;42438;53.174;6.730;2022-09-28T09:46:41;9.57;;;5.55;;
56541;SDS011;42438;53.174;6.730;2022-09-28T09:49:20;10.82;;;5.50;;
56541;SDS011;42438;53.174;6.730;2022-09-28T09:52:10;10.63;;;5.75;;
56541;SDS011;42438;53.174;6.730;2022-09-28T09:55:01;10.00;;;5.60;;
56541;SDS011;42438;53.174;6.730;2022-09-28T10:00:46;7.95;;;5.15;;
56541;SDS011;42438;53.174;6.730;2022-09-28T10:05:55;11.32;;;5.90;;
56541;SDS011;42438;53.174;6.730;2022-09-28T10:08:49;10.27;;;5.45;;
56541;SDS011;42438;53.174;6.730;2022-09-28T10:11:28;8.80;;;5.03;;
56541;SDS011;42438;53.174;6.730;2022-09-28T10:14:03;7.82;;;4.03;;
56541;SDS011;42438;53.174;6.730;2022-09-28T10:16:35;7.17;;;4.30;;
56541;SDS011;42438;53.174;6.730;2022-09-28T10:19:07;6.82;;;4.20;;
56541;SDS011;42438;53.174;6.730;2022-09-28T10:21:40;5.88;;;3.58;;
56541;SDS011;42438;53.174;6.730;2022-09-28T10:24:45;6.00;;;3.70;;
56541;SDS011;42438;53.174;6.730;2022-09-28T10:27:30;6.30;;;3.85;;
56541;SDS011;42438;53.174;6.730;2022-09-28T10:32:41;6.28;;;3.15;;
56541;SDS011;42438;53.174;6.730;2022-09-28T10:37:57;5.70;;;3.53;;
56541;SDS011;42438;53.174;6.730;2022-09-28T10:40:31;4.93;;;3.15;;
56541;SDS011;42438;53.174;6.730;2022-09-28T10:43:04;5.18;;;2.83;;
56541;SDS011;42438;53.174;6.730;2022-09-28T10:45:44;5.63;;;3.03;;
56541;SDS011;42438;53.174;6.730;2022-09-28T10:48:18;6.10;;;2.28;;
56541;SDS011;42438;53.174;6.730;2022-09-28T10:51:24;4.65;;;2.90;;
56541;SDS011;42438;53.174;6.730;2022-09-28T10:53:58;5.43;;;2.42;;
56541;SDS011;42438;53.174;6.730;2022-09-28T10:56:35;4.28;;;2.60;;
56541;SDS011;42438;53.174;6.730;2022-09-28T10:59:33;3.83;;;2.17;;
56541;SDS011;42438;53.174;6.730;2022-09-28T11:02:23;3.63;;;2.00;;
56541;SDS011;42438;53.174;6.730;2022-09-28T11:05:06;3.10;;;2.00;;
56541;SDS011;42438;53.174;6.730;2022-09-28T11:07:48;3.72;;;1.92;;
56541;SDS011;42438;53.174;6.730;2022-09-28T11:10:25;3.50;;;2.00;;
56541;SDS011;42438;53.174;6.730;2022-09-28T11:12:58;3.08;;;1.80;;
56541;SDS011;42438;53.174;6.730;2022-09-28T11:15:30;6.50;;;2.55;;
56541;SDS011;42438;53.174;6.730;2022-09-28T11:21:05;3.65;;;1.45;;
56541;SDS011;42438;53.174;6.730;2022-09-28T11:26:33;2.63;;;1.20;;
56541;SDS011;42438;53.174;6.730;2022-09-28T11:29:33;2.50;;;1.30;;
56541;SDS011;42438;53.174;6.730;2022-09-28T11:32:12;1.58;;;0.80;;
56541;SDS011;42438;53.174;6.730;2022-09-28T11:34:53;2.30;;;1.10;;
56541;SDS011;42438;53.174;6.730;2022-09-28T11:45:53;2.55;;;1.00;;
56541;SDS011;42438;53.174;6.730;2022-09-28T11:48:41;1.42;;;0.90;;
56541;SDS011;42438;53.174;6.730;2022-09-28T11:51:35;1.63;;;0.80;;
56541;SDS011;42438;53.174;6.730;2022-09-28T11:57:07;3.55;;;1.00;;
56541;SDS011;42438;53.174;6.730;2022-09-28T11:59:57;0.85;;;0.68;;
56541;SDS011;42438;53.174;6.730;2022-09-28T12:02:48;2.08;;;0.80;;
56541;SDS011;42438;53.174;6.730;2022-09-28T12:05:43;1.63;;;0.90;;
56541;SDS011;42438;53.174;6.730;2022-09-28T12:08:28;3.20;;;1.30;;
56541;SDS011;42438;53.174;6.730;2022-09-28T12:13:48;4.13;;;1.30;;
56541;SDS011;42438;53.174;6.730;2022-09-28T12:16:35;1.75;;;1.08;;
56541;SDS011;42438;53.174;6.730;2022-09-28T12:19:15;3.50;;;1.40;;
56541;SDS011;42438;53.174;6.730;2022-09-28T12:21:50;1.73;;;1.00;;
56541;SDS011;42438;53.174;6.730;2022-09-28T12:24:30;2.15;;;0.98;;
56541;SDS011;42438;53.174;6.730;2022-09-28T12:29:43;3.40;;;1.30;;
56541;SDS011;42438;53.174;6.730;2022-09-28T12:35:33;3.65;;;1.10;;
56541;SDS011;42438;53.174;6.730;2022-09-28T12:38:28;7.72;;;1.75;;
56541;SDS011;42438;53.174;6.730;2022-09-28T12:41:03;3.80;;;1.65;;
56541;SDS011;42438;53.174;6.730;2022-09-28T12:43:52;3.88;;;1.88;;
56541;SDS011;42438;53.174;6.730;2022-09-28T12:46:42;3.60;;;1.60;;
56541;SDS011;42438;53.174;6.730;2022-09-28T12:49:40;3.30;;;1.02;;
56541;SDS011;42438;53.174;6.730;2022-09-28T12:55:18;2.00;;;0.90;;
56541;SDS011;42438;53.174;6.730;2022-09-28T13:01:05;2.50;;;1.00;;
56541;SDS011;42438;53.174;6.730;2022-09-28T13:11:39;3.70;;;1.00;;
56541;SDS011;42438;53.174;6.730;2022-09-28T13:22:55;4.25;;;1.20;;
56541;SDS011;42438;53.174;6.730;2022-09-28T13:25:38;2.88;;;1.10;;
56541;SDS011;42438;53.174;6.730;2022-09-28T13:28:13;2.63;;;1.00;;
56541;SDS011;42438;53.174;6.730;2022-09-28T13:30:48;2.38;;;0.93;;
56541;SDS011;42438;53.174;6.730;2022-09-28T13:33:36;2.30;;;1.10;;
56541;SDS011;42438;53.174;6.730;2022-09-28T13:38:58;3.67;;;1.05;;
56541;SDS011;42438;53.174;6.730;2022-09-28T13:41:39;2.00;;;0.90;;
56541;SDS011;42438;53.174;6.730;2022-09-28T13:44:25;3.20;;;1.10;;
56541;SDS011;42438;53.174;6.730;2022-09-28T13:47:13;2.28;;;1.17;;
56541;SDS011;42438;53.174;6.730;2022-09-28T13:49:58;3.70;;;1.27;;
56541;SDS011;42438;53.174;6.730;2022-09-28T13:52:34;1.85;;;1.10;;
56541;SDS011;42438;53.174;6.730;2022-09-28T13:58:02;1.10;;;0.70;;
56541;SDS011;42438;53.174;6.730;2022-09-28T14:01:36;3.63;;;1.10;;
56541;SDS011;42438;53.174;6.730;2022-09-28T14:06:28;1.92;;;1.00;;
56541;SDS011;42438;53.174;6.730;2022-09-28T14:11:42;2.45;;;1.52;;
56541;SDS011;42438;53.174;6.730;2022-09-28T14:14:25;1.65;;;0.90;;
56541;SDS011;42438;53.174;6.730;2022-09-28T14:25:22;3.45;;;1.30;;
56541;SDS011;42438;53.174;6.730;2022-09-28T14:36:04;2.42;;;1.00;;
56541;SDS011;42438;53.174;6.730;2022-09-28T14:38:43;3.67;;;1.38;;
56541;SDS011;42438;53.174;6.730;2022-09-28T14:41:38;4.13;;;1.10;;
56541;SDS011;42438;53.174;6.730;2022-09-28T14:44:11;2.13;;;1.05;;
56541;SDS011;42438;53.174;6.730;2022-09-28T14:46:45;4.30;;;1.10;;
56541;SDS011;42438;53.174;6.730;2022-09-28T14:54:23;1.88;;;0.90;;
56541;SDS011;42438;53.174;6.730;2022-09-28T14:57:15;2.55;;;0.90;;
56541;SDS011;42438;53.174;6.730;2022-09-28T14:59:50;1.60;;;0.80;;
56541;SDS011;42438;53.174;6.730;2022-09-28T15:02:24;2.95;;;1.17;;
56541;SDS011;42438;53.174;6.730;2022-09-28T15:05:06;3.75;;;1.20;;
56541;SDS011;42438;53.174;6.730;2022-09-28T15:07:48;2.13;;;1.00;;
56541;SDS011;42438;53.174;6.730;2022-09-28T15:12:55;2.08;;;1.20;;
56541;SDS011;42438;53.174;6.730;2022-09-28T15:20:48;2.38;;;1.50;;
56541;SDS011;42438;53.174;6.730;2022-09-28T15:26:07;2.47;;;0.98;;
56541;SDS011;42438;53.174;6.730;2022-09-28T15:28:56;1.90;;;0.95;;
56541;SDS011;42438;53.174;6.730;2022-09-28T15:31:29;2.42;;;1.10;;
56541;SDS011;42438;53.174;6.730;2022-09-28T15:34:03;2.33;;;1.10;;
56541;SDS011;42438;53.174;6.730;2022-09-28T15:36:52;2.60;;;1.23;;
56541;SDS011;42438;53.174;6.730;2022-09-28T15:39:31;1.63;;;1.00;;
56541;SDS011;42438;53.174;6.730;2022-09-28T15:42:03;3.05;;;1.33;;
56541;SDS011;42438;53.174;6.730;2022-09-28T15:44:38;3.03;;;1.20;;
56541;SDS011;42438;53.174;6.730;2022-09-28T15:47:26;1.92;;;1.08;;
56541;SDS011;42438;53.174;6.730;2022-09-28T15:49:59;3.65;;;1.05;;
56541;SDS011;42438;53.174;6.730;2022-09-28T15:52:36;2.92;;;0.95;;
56541;SDS011;42438;53.174;6.730;2022-09-28T15:55:17;1.75;;;1.00;;
56541;SDS011;42438;53.174;6.730;2022-09-28T16:00:53;2.83;;;0.90;;
56541;SDS011;42438;53.174;6.730;2022-09-28T16:12:43;2.63;;;0.90;;
56541;SDS011;42438;53.174;6.730;2022-09-28T16:15:27;2.22;;;1.05;;
56541;SDS011;42438;53.174;6.730;2022-09-28T16:20:51;2.00;;;1.20;;
56541;SDS011;42438;53.174;6.730;2022-09-28T16:23:30;3.05;;;1.20;;
56541;SDS011;42438;53.174;6.730;2022-09-28T16:26:04;2.45;;;1.20;;
56541;SDS011;42438;53.174;6.730;2022-09-28T16:33:42;1.30;;;0.80;;
56541;SDS011;42438;53.174;6.730;2022-09-28T16:36:15;2.05;;;1.00;;
56541;SDS011;42438;53.174;6.730;2022-09-28T16:38:46;2.13;;;1.00;;
56541;SDS011;42438;53.174;6.730;2022-09-28T16:41:18;3.58;;;1.10;;
56541;SDS011;42438;53.174;6.730;2022-09-28T16:43:53;2.20;;;0.90;;
56541;SDS011;42438;53.174;6.730;2022-09-28T16:46:30;2.00;;;0.98;;
56541;SDS011;42438;53.174;6.730;2022-09-28T16:49:06;1.83;;;0.95;;
56541;SDS011;42438;53.174;6.730;2022-09-28T16:51:36;1.67;;;0.90;;
56541;SDS011;42438;53.174;6.730;2022-09-28T16:54:16;2.58;;;0.70;;
56541;SDS011;42438;53.174;6.730;2022-09-28T16:57:08;2.17;;;0.80;;
56541;SDS011;42438;53.174;6.730;2022-09-28T16:59:40;3.42;;;0.90;;
56541;SDS011;42438;53.174;6.730;2022-09-28T17:02:18;2.45;;;0.98;;
56541;SDS011;42438;53.174;6.730;2022-09-28T17:04:54;1.85;;;0.80;;
56541;SDS011;42438;53.174;6.730;2022-09-28T17:07:26;1.85;;;0.80;;
56541;SDS011;42438;53.174;6.730;2022-09-28T17:09:57;1.95;;;0.90;;
56541;SDS011;42438;53.174;6.730;2022-09-28T17:12:27;1.98;;;0.98;;
56541;SDS011;42438;53.174;6.730;2022-09-28T17:14:58;3.53;;;1.20;;
56541;SDS011;42438;53.174;6.730;2022-09-28T17:17:29;3.15;;;1.17;;
56541;SDS011;42438;53.174;6.730;2022-09-28T17:20:00;2.70;;;1.10;;
56541;SDS011;42438;53.174;6.730;2022-09-28T17:22:44;2.80;;;0.93;;
56541;SDS011;42438;53.174;6.730;2022-09-28T17:25:15;3.40;;;1.23;;
56541;SDS011;42438;53.174;6.730;2022-09-28T17:27:47;2.88;;;1.50;;
56541;SDS011;42438;53.174;6.730;2022-09-28T17:30:19;2.27;;;1.30;;
56541;SDS011;42438;53.174;6.730;2022-09-28T17:32:51;2.72;;;1.42;;
56541;SDS011;42438;53.174;6.730;2022-09-28T17:35:21;6.03;;;3.30;;
56541;SDS011;42438;53.174;6.730;2022-09-28T17:37:52;8.13;;;4.75;;
56541;SDS011;42438;53.174;6.730;2022-09-28T17:40:24;11.27;;;7.35;;
56541;SDS011;42438;53.174;6.730;2022-09-28T17:42:57;12.10;;;7.25;;
56541;SDS011;42438;53.174;6.730;2022-09-28T17:45:28;14.18;;;9.65;;
56541;SDS011;42438;53.174;6.730;2022-09-28T17:48:00;21.17;;;12.15;;
56541;SDS011;42438;53.174;6.730;2022-09-28T17:50:32;37.50;;;10.23;;
56541;SDS011;42438;53.174;6.730;2022-09-28T17:53:03;16.85;;;5.90;;
56541;SDS011;42438;53.174;6.730;2022-09-28T17:55:38;26.42;;;7.40;;
56541;SDS011;42438;53.174;6.730;2022-09-28T17:58:18;23.10;;;5.93;;
56541;SDS011;42438;53.174;6.730;2022-09-28T18:00:51;25.00;;;7.57;;
56541;SDS011;42438;53.174;6.730;2022-09-28T18:03:22;13.55;;;6.07;;
56541;SDS011;42438;53.174;6.730;2022-09-28T18:05:57;6.10;;;3.05;;
56541;SDS011;42438;53.174;6.730;2022-09-28T18:08:42;4.72;;;2.65;;
56541;SDS011;42438;53.174;6.730;2022-09-28T18:11:12;5.88;;;2.58;;
56541;SDS011;42438;53.174;6.730;2022-09-28T18:13:43;9.23;;;6.10;;
56541;SDS011;42438;53.174;6.730;2022-09-28T18:16:15;5.05;;;3.25;;
56541;SDS011;42438;53.174;6.730;2022-09-28T18:18:46;5.18;;;3.15;;
56541;SDS011;42438;53.174;6.730;2022-09-28T18:21:17;6.55;;;3.10;;
56541;SDS011;42438;53.174;6.730;2022-09-28T18:23:47;5.90;;;2.97;;
56541;SDS011;42438;53.174;6.730;2022-09-28T18:26:18;7.82;;;4.80;;
56541;SDS011;42438;53.174;6.730;2022-09-28T18:28:52;6.80;;;3.95;;
56541;SDS011;42438;53.174;6.730;2022-09-28T18:31:23;5.65;;;3.00;;
56541;SDS011;42438;53.174;6.730;2022-09-28T18:33:57;6.30;;;3.67;;
56541;SDS011;42438;53.174;6.730;2022-09-28T18:36:31;5.57;;;3.08;;
56541;SDS011;42438;53.174;6.730;2022-09-28T18:41:35;5.65;;;3.08;;